sensor_id;sensor_type;location;lat;lon;timestamp;pressure;altitude;pressure_sealevel;temperature;humidity
61573;BME280;47465;43.094;12.434;2023-05-01T00:01:09;98262.53;;;15.32;59.66
61573;BME280;47465;43.094;12.434;2023-05-01T00:03:34;98256.38;;;15.30;59.58
61573;BME280;47465;43.094;12.434;2023-05-01T00:06:01;98248.41;;;15.28;59.43
61573;BME280;47465;43.094;12.434;2023-05-01T00:08:30;98265.47;;;15.43;59.40
61573;BME280;47465;43.094;12.434;2023-05-01T00:10:56;98254.94;;;15.40;59.23
61573;BME280;47465;43.094;12.434;2023-05-01T00:13:22;98260.44;;;15.37;59.50
61573;BME280;47465;43.094;12.434;2023-05-01T00:15:49;98250.94;;;15.31;59.42
61573;BME280;47465;43.094;12.434;2023-05-01T00:18:15;98255.28;;;15.34;59.70
61573;BME280;47465;43.094;12.434;2023-05-01T00:20:41;98263.84;;;15.40;58.81
61573;BME280;47465;43.094;12.434;2023-05-01T00:23:07;98228.03;;;15.26;58.29
61573;BME280;47465;43.094;12.434;2023-05-01T00:25:34;98229.34;;;15.34;58.25
61573;BME280;47465;43.094;12.434;2023-05-01T00:28:00;98250.09;;;15.47;57.95
61573;BME280;47465;43.094;12.434;2023-05-01T00:30:26;98259.06;;;15.46;58.23
61573;BME280;47465;43.094;12.434;2023-05-01T00:32:52;98260.13;;;15.43;58.22
61573;BME280;47465;43.094;12.434;2023-05-01T00:35:18;98231.41;;;15.29;58.26
61573;BME280;47465;43.094;12.434;2023-05-01T00:37:44;98236.59;;;15.32;58.38
61573;BME280;47465;43.094;12.434;2023-05-01T00:40:10;98253.91;;;15.43;58.49
61573;BME280;47465;43.094;12.434;2023-05-01T00:42:37;98240.13;;;15.33;58.43
61573;BME280;47465;43.094;12.434;2023-05-01T00:45:05;98245.78;;;15.44;58.17
61573;BME280;47465;43.094;12.434;2023-05-01T00:47:31;98233.06;;;15.48;57.39
61573;BME280;47465;43.094;12.434;2023-05-01T00:49:58;98220.78;;;15.28;57.99
61573;BME280;47465;43.094;12.434;2023-05-01T00:52:25;98245.00;;;15.42;57.92
61573;BME280;47465;43.094;12.434;2023-05-01T00:54:51;98217.25;;;15.27;57.62
61573;BME280;47465;43.094;12.434;2023-05-01T00:57:17;98214.97;;;15.19;58.15
61573;BME280;47465;43.094;12.434;2023-05-01T00:59:45;98209.94;;;15.13;58.51
61573;BME280;47465;43.094;12.434;2023-05-01T01:02:11;98217.44;;;15.07;58.99
61573;BME280;47465;43.094;12.434;2023-05-01T01:04:38;98216.75;;;15.03;58.59
61573;BME280;47465;43.094;12.434;2023-05-01T01:07:09;98230.50;;;15.13;58.05
61573;BME280;47465;43.094;12.434;2023-05-01T01:09:44;98225.31;;;15.10;58.87
61573;BME280;47465;43.094;12.434;2023-05-01T01:12:18;98224.81;;;15.03;58.67
61573;BME280;47465;43.094;12.434;2023-05-01T01:14:51;98231.72;;;15.07;58.47
61573;BME280;47465;43.094;12.434;2023-05-01T01:17:26;98238.00;;;15.06;59.27
61573;BME280;47465;43.094;12.434;2023-05-01T01:20:10;98210.41;;;14.88;58.44
61573;BME280;47465;43.094;12.434;2023-05-01T01:22:40;98208.66;;;14.87;57.87
61573;BME280;47465;43.094;12.434;2023-05-01T01:25:27;98200.94;;;14.98;57.05
61573;BME280;47465;43.094;12.434;2023-05-01T01:28:08;98231.28;;;15.15;57.19
61573;BME280;47465;43.094;12.434;2023-05-01T01:30:56;98221.75;;;15.09;57.26
61573;BME280;47465;43.094;12.434;2023-05-01T01:34:00;98228.78;;;15.12;57.69
61573;BME280;47465;43.094;12.434;2023-05-01T01:36:38;98213.06;;;15.06;56.78
61573;BME280;47465;43.094;12.434;2023-05-01T01:39:09;98225.88;;;15.16;56.60
61573;BME280;47465;43.094;12.434;2023-05-01T01:41:38;98214.75;;;15.07;57.12
61573;BME280;47465;43.094;12.434;2023-05-01T01:44:08;98225.59;;;15.05;57.51
61573;BME280;47465;43.094;12.434;2023-05-01T01:46:37;98215.44;;;14.94;57.15
61573;BME280;47465;43.094;12.434;2023-05-01T01:49:10;98200.50;;;14.90;57.02
61573;BME280;47465;43.094;12.434;2023-05-01T01:51:39;98221.34;;;15.01;56.76
61573;BME280;47465;43.094;12.434;2023-05-01T01:54:08;98220.16;;;14.89;57.32
61573;BME280;47465;43.094;12.434;2023-05-01T01:56:36;98225.63;;;14.88;57.39
61573;BME280;47465;43.094;12.434;2023-05-01T01:59:03;98209.59;;;14.70;57.18
61573;BME280;47465;43.094;12.434;2023-05-01T02:01:29;98215.56;;;14.75;57.14
61573;BME280;47465;43.094;12.434;2023-05-01T02:03:57;98220.06;;;14.75;57.06
61573;BME280;47465;43.094;12.434;2023-05-01T02:06:25;98226.19;;;14.77;56.82
61573;BME280;47465;43.094;12.434;2023-05-01T02:08:52;98218.16;;;14.77;56.89
61573;BME280;47465;43.094;12.434;2023-05-01T02:11:19;98215.69;;;14.72;56.44
61573;BME280;47465;43.094;12.434;2023-05-01T02:13:47;98215.00;;;14.69;57.20
61573;BME280;47465;43.094;12.434;2023-05-01T02:16:14;98219.34;;;14.71;56.73
61573;BME280;47465;43.094;12.434;2023-05-01T02:18:41;98191.78;;;14.52;56.72
61573;BME280;47465;43.094;12.434;2023-05-01T02:21:08;98214.69;;;14.75;55.99
61573;BME280;47465;43.094;12.434;2023-05-01T02:23:37;98221.75;;;14.76;55.70
61573;BME280;47465;43.094;12.434;2023-05-01T02:26:04;98230.19;;;14.86;55.44
61573;BME280;47465;43.094;12.434;2023-05-01T02:28:33;98191.63;;;14.55;56.43
61573;BME280;47465;43.094;12.434;2023-05-01T02:30:59;98225.00;;;14.65;57.17
61573;BME280;47465;43.094;12.434;2023-05-01T02:33:26;98213.59;;;14.79;55.97
61573;BME280;47465;43.094;12.434;2023-05-01T02:35:51;98203.81;;;14.78;55.33
61573;BME280;47465;43.094;12.434;2023-05-01T02:38:17;98207.28;;;14.80;55.58
61573;BME280;47465;43.094;12.434;2023-05-01T02:40:47;98189.19;;;14.68;55.81
61573;BME280;47465;43.094;12.434;2023-05-01T02:43:17;98206.31;;;14.81;56.14
61573;BME280;47465;43.094;12.434;2023-05-01T02:45:45;98195.84;;;14.76;55.59
61573;BME280;47465;43.094;12.434;2023-05-01T02:48:14;98189.16;;;14.85;55.26
61573;BME280;47465;43.094;12.434;2023-05-01T02:50:43;98196.06;;;14.89;55.28
61573;BME280;47465;43.094;12.434;2023-05-01T02:53:10;98203.16;;;14.90;55.60
61573;BME280;47465;43.094;12.434;2023-05-01T02:55:36;98184.03;;;14.81;55.82
61573;BME280;47465;43.094;12.434;2023-05-01T02:58:04;98189.25;;;14.84;55.80
61573;BME280;47465;43.094;12.434;2023-05-01T03:00:30;98178.16;;;14.74;56.72
61573;BME280;47465;43.094;12.434;2023-05-01T03:02:57;98181.00;;;14.71;56.80
61573;BME280;47465;43.094;12.434;2023-05-01T03:05:22;98182.19;;;14.65;57.29
61573;BME280;47465;43.094;12.434;2023-05-01T03:07:48;98153.97;;;14.42;57.27
61573;BME280;47465;43.094;12.434;2023-05-01T03:10:15;98185.56;;;14.51;57.56
61573;BME280;47465;43.094;12.434;2023-05-01T03:12:41;98159.63;;;14.36;57.54
61573;BME280;47465;43.094;12.434;2023-05-01T03:15:09;98165.13;;;14.33;57.82
61573;BME280;47465;43.094;12.434;2023-05-01T03:17:37;98185.88;;;14.45;57.63
61573;BME280;47465;43.094;12.434;2023-05-01T03:20:03;98185.09;;;14.43;57.95
61573;BME280;47465;43.094;12.434;2023-05-01T03:22:34;98149.72;;;14.21;58.26
61573;BME280;47465;43.094;12.434;2023-05-01T03:25:00;98182.44;;;14.43;57.87
61573;BME280;47465;43.094;12.434;2023-05-01T03:27:26;98184.13;;;14.44;58.17
61573;BME280;47465;43.094;12.434;2023-05-01T03:29:52;98168.22;;;14.25;58.31
61573;BME280;47465;43.094;12.434;2023-05-01T03:32:19;98161.75;;;14.29;57.94
61573;BME280;47465;43.094;12.434;2023-05-01T03:34:45;98157.66;;;14.22;58.50
61573;BME280;47465;43.094;12.434;2023-05-01T03:37:11;98172.34;;;14.31;58.55
61573;BME280;47465;43.094;12.434;2023-05-01T03:39:37;98142.03;;;14.14;58.44
61573;BME280;47465;43.094;12.434;2023-05-01T03:42:02;98151.28;;;14.25;58.41
61573;BME280;47465;43.094;12.434;2023-05-01T03:44:29;98166.16;;;14.30;58.16
61573;BME280;47465;43.094;12.434;2023-05-01T03:46:55;98160.19;;;14.25;58.26
61573;BME280;47465;43.094;12.434;2023-05-01T03:49:23;98139.81;;;14.05;58.88
61573;BME280;47465;43.094;12.434;2023-05-01T03:51:48;98176.47;;;14.38;58.38
61573;BME280;47465;43.094;12.434;2023-05-01T03:54:14;98169.59;;;14.32;58.13
61573;BME280;47465;43.094;12.434;2023-05-01T03:56:40;98163.94;;;14.38;58.00
61573;BME280;47465;43.094;12.434;2023-05-01T03:59:06;98154.84;;;14.25;58.00
61573;BME280;47465;43.094;12.434;2023-05-01T04:01:32;98150.81;;;14.34;58.31
61573;BME280;47465;43.094;12.434;2023-05-01T04:03:58;98169.84;;;14.45;57.79
61573;BME280;47465;43.094;12.434;2023-05-01T04:06:25;98145.47;;;14.34;57.54
61573;BME280;47465;43.094;12.434;2023-05-01T04:08:51;98161.03;;;14.43;58.05
61573;BME280;47465;43.094;12.434;2023-05-01T04:11:17;98147.34;;;14.32;57.94
61573;BME280;47465;43.094;12.434;2023-05-01T04:13:43;98183.69;;;14.53;57.81
61573;BME280;47465;43.094;12.434;2023-05-01T04:16:08;98161.50;;;14.51;57.79
61573;BME280;47465;43.094;12.434;2023-05-01T04:18:34;98164.56;;;14.61;57.62
61573;BME280;47465;43.094;12.434;2023-05-01T04:21:00;98145.16;;;14.57;56.95
61573;BME280;47465;43.094;12.434;2023-05-01T04:23:27;98161.41;;;14.70;57.09
61573;BME280;47465;43.094;12.434;2023-05-01T04:25:53;98159.94;;;14.65;58.01
61573;BME280;47465;43.094;12.434;2023-05-01T04:28:19;98173.59;;;14.76;57.18
61573;BME280;47465;43.094;12.434;2023-05-01T04:30:45;98171.69;;;14.78;56.89
61573;BME280;47465;43.094;12.434;2023-05-01T04:33:11;98169.97;;;14.77;57.09
61573;BME280;47465;43.094;12.434;2023-05-01T04:35:37;98131.84;;;14.56;57.65
61573;BME280;47465;43.094;12.434;2023-05-01T04:38:03;98160.06;;;14.79;56.54
61573;BME280;47465;43.094;12.434;2023-05-01T04:40:31;98159.69;;;14.85;56.22
61573;BME280;47465;43.094;12.434;2023-05-01T04:42:56;98160.47;;;14.87;56.59
61573;BME280;47465;43.094;12.434;2023-05-01T04:45:22;98164.84;;;14.90;56.50
61573;BME280;47465;43.094;12.434;2023-05-01T04:47:48;98140.00;;;14.70;56.32
61573;BME280;47465;43.094;12.434;2023-05-01T04:50:14;98162.84;;;14.93;56.36
61573;BME280;47465;43.094;12.434;2023-05-01T04:52:40;98156.69;;;14.91;56.38
61573;BME280;47465;43.094;12.434;2023-05-01T04:55:07;98168.03;;;14.96;56.40
61573;BME280;47465;43.094;12.434;2023-05-01T04:57:35;98139.41;;;14.81;56.32
61573;BME280;47465;43.094;12.434;2023-05-01T05:00:01;98167.06;;;14.97;56.52
61573;BME280;47465;43.094;12.434;2023-05-01T05:02:28;98144.59;;;14.84;55.92
61573;BME280;47465;43.094;12.434;2023-05-01T05:04:53;98181.00;;;15.04;55.78
61573;BME280;47465;43.094;12.434;2023-05-01T05:07:20;98166.03;;;15.00;56.59
61573;BME280;47465;43.094;12.434;2023-05-01T05:09:46;98173.22;;;14.99;56.55
61573;BME280;47465;43.094;12.434;2023-05-01T05:12:12;98176.41;;;15.06;55.72
61573;BME280;47465;43.094;12.434;2023-05-01T05:14:41;98188.44;;;15.15;55.87
61573;BME280;47465;43.094;12.434;2023-05-01T05:17:07;98189.66;;;15.25;55.92
61573;BME280;47465;43.094;12.434;2023-05-01T05:19:33;98155.44;;;15.14;54.95
61573;BME280;47465;43.094;12.434;2023-05-01T05:22:00;98179.81;;;15.41;55.18
61573;BME280;47465;43.094;12.434;2023-05-01T05:24:26;98172.66;;;15.42;54.59
61573;BME280;47465;43.094;12.434;2023-05-01T05:26:52;98170.22;;;15.53;54.38
61573;BME280;47465;43.094;12.434;2023-05-01T05:29:19;98176.38;;;15.71;53.74
61573;BME280;47465;43.094;12.434;2023-05-01T05:31:47;98176.28;;;15.89;53.83
61573;BME280;47465;43.094;12.434;2023-05-01T05:34:13;98201.84;;;16.10;53.78
61573;BME280;47465;43.094;12.434;2023-05-01T05:36:39;98173.88;;;15.84;54.08
61573;BME280;47465;43.094;12.434;2023-05-01T05:39:05;98184.66;;;15.98;53.95
61573;BME280;47465;43.094;12.434;2023-05-01T05:41:31;98193.13;;;15.91;54.41
61573;BME280;47465;43.094;12.434;2023-05-01T05:43:57;98195.19;;;16.01;54.22
61573;BME280;47465;43.094;12.434;2023-05-01T05:46:23;98201.00;;;15.94;54.37
61573;BME280;47465;43.094;12.434;2023-05-01T05:48:50;98153.34;;;15.67;54.71
61573;BME280;47465;43.094;12.434;2023-05-01T05:51:16;98188.81;;;15.88;54.59
61573;BME280;47465;43.094;12.434;2023-05-01T05:53:42;98180.06;;;15.85;55.00
61573;BME280;47465;43.094;12.434;2023-05-01T05:56:08;98201.75;;;15.96;53.97
61573;BME280;47465;43.094;12.434;2023-05-01T05:58:33;98161.66;;;15.78;54.15
61573;BME280;47465;43.094;12.434;2023-05-01T06:00:59;98179.53;;;15.94;55.06
61573;BME280;47465;43.094;12.434;2023-05-01T06:03:25;98173.16;;;15.96;54.97
61573;BME280;47465;43.094;12.434;2023-05-01T06:05:53;98188.94;;;16.17;54.56
61573;BME280;47465;43.094;12.434;2023-05-01T06:08:19;98190.34;;;16.38;53.81
61573;BME280;47465;43.094;12.434;2023-05-01T06:10:45;98145.69;;;16.37;54.00
61573;BME280;47465;43.094;12.434;2023-05-01T06:13:11;98191.19;;;16.98;52.51
61573;BME280;47465;43.094;12.434;2023-05-01T06:15:38;98177.66;;;16.71;53.02
61573;BME280;47465;43.094;12.434;2023-05-01T06:18:04;98156.13;;;16.56;54.21
61573;BME280;47465;43.094;12.434;2023-05-01T06:20:30;98156.16;;;16.71;53.21
61573;BME280;47465;43.094;12.434;2023-05-01T06:22:58;98151.50;;;17.03;52.76
61573;BME280;47465;43.094;12.434;2023-05-01T06:25:23;98177.59;;;17.01;53.90
61573;BME280;47465;43.094;12.434;2023-05-01T06:27:50;98186.91;;;16.81;54.10
61573;BME280;47465;43.094;12.434;2023-05-01T06:30:16;98161.59;;;16.85;54.22
61573;BME280;47465;43.094;12.434;2023-05-01T06:32:44;98155.97;;;17.17;53.29
61573;BME280;47465;43.094;12.434;2023-05-01T06:35:10;98160.75;;;17.40;52.93
61573;BME280;47465;43.094;12.434;2023-05-01T06:37:36;98154.19;;;17.59;52.33
61573;BME280;47465;43.094;12.434;2023-05-01T06:40:05;98179.19;;;18.15;51.21
61573;BME280;47465;43.094;12.434;2023-05-01T06:42:32;98170.25;;;18.27;50.85
61573;BME280;47465;43.094;12.434;2023-05-01T06:44:57;98183.34;;;18.72;50.78
61573;BME280;47465;43.094;12.434;2023-05-01T06:47:23;98169.03;;;18.84;49.31
61573;BME280;47465;43.094;12.434;2023-05-01T06:49:49;98162.03;;;18.82;49.59
61573;BME280;47465;43.094;12.434;2023-05-01T06:52:15;98175.16;;;18.61;50.96
61573;BME280;47465;43.094;12.434;2023-05-01T06:54:41;98169.63;;;18.50;48.33
61573;BME280;47465;43.094;12.434;2023-05-01T06:57:08;98189.91;;;18.55;48.37
61573;BME280;47465;43.094;12.434;2023-05-01T06:59:34;98177.66;;;18.77;47.44
61573;BME280;47465;43.094;12.434;2023-05-01T07:02:01;98190.44;;;18.60;47.87
61573;BME280;47465;43.094;12.434;2023-05-01T07:04:26;98189.97;;;19.19;46.20
61573;BME280;47465;43.094;12.434;2023-05-01T07:06:52;98170.88;;;19.09;45.66
61573;BME280;47465;43.094;12.434;2023-05-01T07:09:18;98156.94;;;19.28;45.59
61573;BME280;47465;43.094;12.434;2023-05-01T07:11:44;98190.59;;;19.60;44.91
61573;BME280;47465;43.094;12.434;2023-05-01T07:14:11;98163.53;;;19.74;44.04
61573;BME280;47465;43.094;12.434;2023-05-01T07:16:37;98158.13;;;19.24;45.24
61573;BME280;47465;43.094;12.434;2023-05-01T07:19:03;98146.97;;;19.42;43.83
61573;BME280;47465;43.094;12.434;2023-05-01T07:21:29;98168.66;;;20.01;44.59
61573;BME280;47465;43.094;12.434;2023-05-01T07:23:56;98151.34;;;19.93;44.56
61573;BME280;47465;43.094;12.434;2023-05-01T07:26:24;98156.09;;;19.65;44.93
61573;BME280;47465;43.094;12.434;2023-05-01T07:28:51;98159.72;;;19.40;46.53
61573;BME280;47465;43.094;12.434;2023-05-01T07:31:18;98150.53;;;19.42;44.76
61573;BME280;47465;43.094;12.434;2023-05-01T07:33:44;98148.25;;;18.99;46.72
61573;BME280;47465;43.094;12.434;2023-05-01T07:36:10;98157.22;;;19.00;46.64
61573;BME280;47465;43.094;12.434;2023-05-01T07:38:36;98154.56;;;19.24;45.94
61573;BME280;47465;43.094;12.434;2023-05-01T07:41:02;98173.59;;;19.46;46.31
61573;BME280;47465;43.094;12.434;2023-05-01T07:43:28;98166.31;;;19.23;46.80
61573;BME280;47465;43.094;12.434;2023-05-01T07:45:54;98154.38;;;18.88;47.00
61573;BME280;47465;43.094;12.434;2023-05-01T07:48:23;98150.94;;;18.99;47.15
61573;BME280;47465;43.094;12.434;2023-05-01T07:50:49;98151.22;;;19.20;47.05
61573;BME280;47465;43.094;12.434;2023-05-01T07:53:15;98154.97;;;19.43;46.83
61573;BME280;47465;43.094;12.434;2023-05-01T07:55:41;98179.88;;;19.84;46.45
61573;BME280;47465;43.094;12.434;2023-05-01T07:58:07;98160.81;;;19.98;47.13
61573;BME280;47465;43.094;12.434;2023-05-01T08:00:34;98180.97;;;20.05;46.01
61573;BME280;47465;43.094;12.434;2023-05-01T08:03:00;98158.81;;;19.89;45.05
61573;BME280;47465;43.094;12.434;2023-05-01T08:05:28;98172.91;;;19.93;45.51
61573;BME280;47465;43.094;12.434;2023-05-01T08:07:53;98150.31;;;19.45;45.91
61573;BME280;47465;43.094;12.434;2023-05-01T08:10:20;98153.63;;;19.86;46.08
61573;BME280;47465;43.094;12.434;2023-05-01T08:12:46;98163.75;;;20.19;45.70
61573;BME280;47465;43.094;12.434;2023-05-01T08:15:11;98167.13;;;20.45;45.85
61573;BME280;47465;43.094;12.434;2023-05-01T08:17:37;98172.97;;;20.63;44.91
61573;BME280;47465;43.094;12.434;2023-05-01T08:20:04;98137.44;;;20.57;44.51
61573;BME280;47465;43.094;12.434;2023-05-01T08:22:31;98159.09;;;20.68;44.75
61573;BME280;47465;43.094;12.434;2023-05-01T08:24:57;98142.00;;;20.56;45.66
61573;BME280;47465;43.094;12.434;2023-05-01T08:27:23;98172.16;;;20.39;46.28
61573;BME280;47465;43.094;12.434;2023-05-01T08:29:49;98156.78;;;20.63;45.73
61573;BME280;47465;43.094;12.434;2023-05-01T08:32:16;98158.09;;;20.58;45.11
61573;BME280;47465;43.094;12.434;2023-05-01T08:34:42;98148.75;;;20.15;46.65
61573;BME280;47465;43.094;12.434;2023-05-01T08:37:08;98154.53;;;20.57;45.96
61573;BME280;47465;43.094;12.434;2023-05-01T08:39:36;98143.81;;;20.56;45.00
61573;BME280;47465;43.094;12.434;2023-05-01T08:42:02;98163.78;;;20.77;46.88
61573;BME280;47465;43.094;12.434;2023-05-01T08:44:29;98191.72;;;20.89;45.46
61573;BME280;47465;43.094;12.434;2023-05-01T08:47:03;98159.00;;;20.81;46.15
61573;BME280;47465;43.094;12.434;2023-05-01T08:49:33;98175.59;;;20.87;45.56
61573;BME280;47465;43.094;12.434;2023-05-01T08:52:02;98157.09;;;20.47;46.41
61573;BME280;47465;43.094;12.434;2023-05-01T08:54:30;98178.41;;;20.39;47.98
61573;BME280;47465;43.094;12.434;2023-05-01T08:56:59;98156.69;;;20.41;46.49
61573;BME280;47465;43.094;12.434;2023-05-01T08:59:29;98159.59;;;20.62;46.69
61573;BME280;47465;43.094;12.434;2023-05-01T09:01:59;98161.06;;;20.66;45.65
61573;BME280;47465;43.094;12.434;2023-05-01T09:04:28;98169.56;;;20.84;46.57
61573;BME280;47465;43.094;12.434;2023-05-01T09:06:57;98153.34;;;20.84;46.41
61573;BME280;47465;43.094;12.434;2023-05-01T09:09:25;98178.56;;;21.18;46.80
61573;BME280;47465;43.094;12.434;2023-05-01T09:11:54;98152.00;;;20.78;45.44
61573;BME280;47465;43.094;12.434;2023-05-01T09:14:22;98178.19;;;21.11;45.36
61573;BME280;47465;43.094;12.434;2023-05-01T09:16:49;98187.16;;;20.89;45.54
61573;BME280;47465;43.094;12.434;2023-05-01T09:19:16;98178.94;;;21.02;45.96
61573;BME280;47465;43.094;12.434;2023-05-01T09:21:42;98184.09;;;20.94;46.15
61573;BME280;47465;43.094;12.434;2023-05-01T09:24:08;98169.66;;;20.60;45.96
61573;BME280;47465;43.094;12.434;2023-05-01T09:26:34;98161.22;;;20.40;47.30
61573;BME280;47465;43.094;12.434;2023-05-01T09:29:03;98141.81;;;20.35;46.88
61573;BME280;47465;43.094;12.434;2023-05-01T09:31:32;98171.66;;;20.45;47.51
61573;BME280;47465;43.094;12.434;2023-05-01T09:33:59;98172.69;;;20.55;47.17
61573;BME280;47465;43.094;12.434;2023-05-01T09:36:26;98149.78;;;20.72;47.67
61573;BME280;47465;43.094;12.434;2023-05-01T09:38:52;98149.47;;;21.10;46.39
61573;BME280;47465;43.094;12.434;2023-05-01T09:41:19;98194.69;;;21.20;46.85
61573;BME280;47465;43.094;12.434;2023-05-01T09:43:48;98184.72;;;21.09;46.92
61573;BME280;47465;43.094;12.434;2023-05-01T09:46:16;98156.88;;;20.62;46.63
61573;BME280;47465;43.094;12.434;2023-05-01T09:49:00;98169.47;;;20.97;47.13
61573;BME280;47465;43.094;12.434;2023-05-01T09:51:29;98178.56;;;20.49;48.42
61573;BME280;47465;43.094;12.434;2023-05-01T09:53:56;98177.91;;;20.69;48.80
61573;BME280;47465;43.094;12.434;2023-05-01T09:56:22;98159.38;;;20.76;47.98
61573;BME280;47465;43.094;12.434;2023-05-01T09:58:53;98173.53;;;20.80;47.73
61573;BME280;47465;43.094;12.434;2023-05-01T10:01:36;98184.56;;;20.77;48.96
61573;BME280;47465;43.094;12.434;2023-05-01T10:04:04;98182.47;;;20.69;48.60
61573;BME280;47465;43.094;12.434;2023-05-01T10:06:30;98189.50;;;20.47;49.92
61573;BME280;47465;43.094;12.434;2023-05-01T10:08:57;98149.31;;;20.07;50.59
61573;BME280;47465;43.094;12.434;2023-05-01T10:11:23;98173.72;;;20.06;52.26
61573;BME280;47465;43.094;12.434;2023-05-01T10:14:04;98190.50;;;20.22;51.31
61573;BME280;47465;43.094;12.434;2023-05-01T10:16:33;98184.97;;;20.24;50.76
61573;BME280;47465;43.094;12.434;2023-05-01T10:18:59;98178.09;;;20.20;51.31
61573;BME280;47465;43.094;12.434;2023-05-01T10:21:27;98191.59;;;19.96;52.35
61573;BME280;47465;43.094;12.434;2023-05-01T10:23:54;98192.56;;;19.95;52.75
61573;BME280;47465;43.094;12.434;2023-05-01T10:26:20;98207.47;;;19.50;53.88
61573;BME280;47465;43.094;12.434;2023-05-01T10:28:48;98176.13;;;19.37;53.88
61573;BME280;47465;43.094;12.434;2023-05-01T10:31:14;98187.91;;;19.73;52.77
61573;BME280;47465;43.094;12.434;2023-05-01T10:33:41;98177.56;;;19.54;52.79
61573;BME280;47465;43.094;12.434;2023-05-01T10:36:16;98182.50;;;19.10;55.10
61573;BME280;47465;43.094;12.434;2023-05-01T10:38:49;98204.31;;;19.57;53.78
61573;BME280;47465;43.094;12.434;2023-05-01T10:41:15;98207.91;;;19.44;53.97
61573;BME280;47465;43.094;12.434;2023-05-01T10:43:41;98171.38;;;19.15;54.55
61573;BME280;47465;43.094;12.434;2023-05-01T10:46:26;98208.91;;;19.43;55.05
61573;BME280;47465;43.094;12.434;2023-05-01T10:48:56;98181.50;;;19.37;54.63
61573;BME280;47465;43.094;12.434;2023-05-01T10:51:23;98191.13;;;19.15;55.58
61573;BME280;47465;43.094;12.434;2023-05-01T10:54:25;98198.31;;;19.40;55.42
61573;BME280;47465;43.094;12.434;2023-05-01T10:56:52;98199.63;;;19.47;56.12
61573;BME280;47465;43.094;12.434;2023-05-01T10:59:19;98174.28;;;19.37;56.38
61573;BME280;47465;43.094;12.434;2023-05-01T11:01:45;98200.94;;;19.03;57.91
61573;BME280;47465;43.094;12.434;2023-05-01T11:04:46;98211.81;;;19.27;57.87
61573;BME280;47465;43.094;12.434;2023-05-01T11:07:14;98185.75;;;19.28;59.60
61573;BME280;47465;43.094;12.434;2023-05-01T11:09:44;98187.13;;;19.21;59.04
61573;BME280;47465;43.094;12.434;2023-05-01T11:12:12;98185.63;;;18.65;60.20
61573;BME280;47465;43.094;12.434;2023-05-01T11:15:00;98200.50;;;19.35;61.29
61573;BME280;47465;43.094;12.434;2023-05-01T11:17:44;98177.97;;;19.60;57.89
61573;BME280;47465;43.094;12.434;2023-05-01T11:20:12;98185.97;;;19.62;58.35
61573;BME280;47465;43.094;12.434;2023-05-01T11:22:39;98161.66;;;19.38;57.54
61573;BME280;47465;43.094;12.434;2023-05-01T11:25:18;98179.75;;;20.09;56.03
61573;BME280;47465;43.094;12.434;2023-05-01T11:27:46;98180.91;;;20.18;54.32
61573;BME280;47465;43.094;12.434;2023-05-01T11:30:12;98151.53;;;20.02;55.78
61573;BME280;47465;43.094;12.434;2023-05-01T11:32:42;98142.31;;;20.40;54.51
61573;BME280;47465;43.094;12.434;2023-05-01T11:35:16;98148.69;;;20.75;51.92
61573;BME280;47465;43.094;12.434;2023-05-01T11:37:43;98156.34;;;20.57;53.45
61573;BME280;47465;43.094;12.434;2023-05-01T11:40:21;98148.78;;;20.26;53.16
61573;BME280;47465;43.094;12.434;2023-05-01T11:42:48;98178.03;;;20.33;53.40
61573;BME280;47465;43.094;12.434;2023-05-01T11:45:14;98156.97;;;20.14;53.95
61573;BME280;47465;43.094;12.434;2023-05-01T11:47:40;98141.34;;;20.06;53.10
61573;BME280;47465;43.094;12.434;2023-05-01T11:50:08;98140.50;;;19.68;55.10
61573;BME280;47465;43.094;12.434;2023-05-01T11:52:41;98148.53;;;19.57;55.53
61573;BME280;47465;43.094;12.434;2023-05-01T11:55:08;98150.56;;;19.66;55.18
61573;BME280;47465;43.094;12.434;2023-05-01T11:57:45;98133.59;;;19.40;56.77
61573;BME280;47465;43.094;12.434;2023-05-01T12:00:13;98150.88;;;19.38;55.94
61573;BME280;47465;43.094;12.434;2023-05-01T12:02:40;98147.44;;;19.23;57.01
61573;BME280;47465;43.094;12.434;2023-05-01T12:05:20;98132.47;;;19.19;57.18
61573;BME280;47465;43.094;12.434;2023-05-01T12:07:47;98146.16;;;19.28;57.62
61573;BME280;47465;43.094;12.434;2023-05-01T12:10:13;98136.22;;;19.29;57.52
61573;BME280;47465;43.094;12.434;2023-05-01T12:12:40;98136.16;;;19.05;58.20
61573;BME280;47465;43.094;12.434;2023-05-01T12:15:08;98132.78;;;19.27;57.62
61573;BME280;47465;43.094;12.434;2023-05-01T12:17:35;98155.91;;;18.80;59.66
61573;BME280;47465;43.094;12.434;2023-05-01T12:20:02;98143.06;;;18.71;61.30
61573;BME280;47465;43.094;12.434;2023-05-01T12:22:28;98146.50;;;18.60;61.73
61573;BME280;47465;43.094;12.434;2023-05-01T12:24:54;98145.44;;;18.88;60.76
61573;BME280;47465;43.094;12.434;2023-05-01T12:27:20;98142.28;;;18.68;61.71
61573;BME280;47465;43.094;12.434;2023-05-01T12:29:46;98135.19;;;18.67;62.59
61573;BME280;47465;43.094;12.434;2023-05-01T12:32:14;98124.72;;;18.76;61.20
61573;BME280;47465;43.094;12.434;2023-05-01T12:34:41;98123.88;;;18.62;61.48
61573;BME280;47465;43.094;12.434;2023-05-01T12:37:08;98125.94;;;18.72;61.79
61573;BME280;47465;43.094;12.434;2023-05-01T12:39:37;98109.78;;;18.72;61.06
61573;BME280;47465;43.094;12.434;2023-05-01T12:42:10;98131.47;;;18.83;61.04
61573;BME280;47465;43.094;12.434;2023-05-01T12:44:36;98129.38;;;18.74;62.48
61573;BME280;47465;43.094;12.434;2023-05-01T12:47:04;98113.97;;;18.50;62.05
61573;BME280;47465;43.094;12.434;2023-05-01T12:49:33;98114.28;;;18.58;62.25
61573;BME280;47465;43.094;12.434;2023-05-01T12:52:03;98131.03;;;18.89;61.78
61573;BME280;47465;43.094;12.434;2023-05-01T12:54:30;98106.09;;;18.98;61.24